createdAt,value
2018-06-11T00:01:41.411Z,16.13
2018-06-11T00:04:10.407Z,16.10
2018-06-11T00:06:39.419Z,16.83
2018-06-11T00:09:08.947Z,16.20
2018-06-11T00:11:37.925Z,15.77
2018-06-11T00:14:06.914Z,16.43
2018-06-11T00:16:35.913Z,17.37
2018-06-11T00:19:04.909Z,17.13
2018-06-11T00:21:33.895Z,17.03
2018-06-11T00:24:02.905Z,17.40
2018-06-11T00:26:31.871Z,17.07
2018-06-11T00:29:02.243Z,16.43
2018-06-11T00:31:31.299Z,17.00
2018-06-11T00:34:00.238Z,17.10
2018-06-11T00:36:29.247Z,16.97
2018-06-11T00:38:58.243Z,17.83
2018-06-11T00:41:27.206Z,17.87
2018-06-11T00:43:56.218Z,17.37
2018-06-11T00:46:25.279Z,17.00
2018-06-11T00:48:54.267Z,17.50
2018-06-11T00:51:23.262Z,16.97
2018-06-11T00:53:52.284Z,17.33
2018-06-11T00:56:21.223Z,17.67
2018-06-11T00:58:50.231Z,16.90
2018-06-11T01:01:19.266Z,16.80
2018-06-11T01:03:48.243Z,16.03
2018-06-11T01:06:17.629Z,16.00
2018-06-11T01:08:46.839Z,16.80
2018-06-11T01:11:16.171Z,17.83
2018-06-11T01:13:45.453Z,16.90
2018-06-11T01:16:14.717Z,16.47
2018-06-11T01:18:43.991Z,16.70
2018-06-11T01:21:13.216Z,18.03
2018-06-11T01:23:42.475Z,18.53
2018-06-11T01:26:11.699Z,18.87
2018-06-11T01:28:40.952Z,18.37
2018-06-11T01:31:10.167Z,17.93
2018-06-11T01:33:39.416Z,18.50
2018-06-11T01:36:08.636Z,19.70
2018-06-11T01:38:37.931Z,19.97
2018-06-11T01:41:07.210Z,18.90
2018-06-11T01:43:36.553Z,18.60
2018-06-11T01:46:05.995Z,19.47
2018-06-11T01:48:35.794Z,19.83
2018-06-11T01:51:05.059Z,19.97
2018-06-11T01:53:39.560Z,19.23
2018-06-11T01:56:08.771Z,18.90
2018-06-11T01:58:38.076Z,19.63
2018-06-11T02:01:07.398Z,19.83
2018-06-11T02:03:37.044Z,19.13
2018-06-11T02:06:06.428Z,19.03
2018-06-11T02:08:35.662Z,19.13
2018-06-11T02:11:04.969Z,19.67
2018-06-11T02:13:34.304Z,20.30
2018-06-11T02:16:03.575Z,20.40
2018-06-11T02:18:32.872Z,18.50
2018-06-11T02:21:02.080Z,19.33
2018-06-11T02:23:31.583Z,20.20
2018-06-11T02:26:00.786Z,20.67
2018-06-11T02:28:30.021Z,21.37
2018-06-11T02:30:59.883Z,21.07
2018-06-11T02:33:29.165Z,20.23
2018-06-11T02:35:58.416Z,20.43
2018-06-11T02:38:28.967Z,21.23
2018-06-11T02:40:59.604Z,21.30
2018-06-11T02:43:28.864Z,21.97
2018-06-11T02:45:57.875Z,22.90
2018-06-11T02:48:26.906Z,23.87
2018-06-11T02:50:55.991Z,23.53
2018-06-11T02:53:25.057Z,24.60
2018-06-11T02:55:54.138Z,23.20
2018-06-11T02:58:23.206Z,23.27
2018-06-11T03:00:52.436Z,22.40
2018-06-11T03:03:21.642Z,21.73
2018-06-11T03:05:50.881Z,21.43
2018-06-11T03:08:20.124Z,22.37
2018-06-11T03:10:49.379Z,22.00
2018-06-11T03:13:18.351Z,21.10
2018-06-11T03:15:47.378Z,23.87
2018-06-11T03:18:16.378Z,23.47
2018-06-11T03:20:45.354Z,23.00
2018-06-11T03:23:14.365Z,23.20
2018-06-11T03:25:43.431Z,23.43
2018-06-11T03:28:12.700Z,22.50
2018-06-11T03:30:41.992Z,24.27
2018-06-11T03:33:10.742Z,23.67
2018-06-11T03:35:39.940Z,24.50
2018-06-11T03:38:09.644Z,21.87
2018-06-11T03:40:38.956Z,23.50
2018-06-11T03:43:08.192Z,22.67
2018-06-11T03:45:37.488Z,24.07
2018-06-11T03:48:06.775Z,23.07
2018-06-11T03:50:35.448Z,22.67
2018-06-11T03:53:05.149Z,23.47
2018-06-11T03:55:34.471Z,24.07
2018-06-11T03:58:03.765Z,22.87
2018-06-11T04:00:33.029Z,23.17
2018-06-11T04:03:02.344Z,22.50
2018-06-11T04:05:31.468Z,22.67
2018-06-11T04:08:00.517Z,22.57
2018-06-11T04:13:32.927Z,21.83
2018-06-11T04:16:02.198Z,22.07
2018-06-11T04:18:31.312Z,22.30
2018-06-11T04:21:00.274Z,22.70
2018-06-11T04:23:29.288Z,21.47
2018-06-11T04:25:58.368Z,23.13
2018-06-11T04:28:27.394Z,23.83
2018-06-11T04:30:56.381Z,24.40
2018-06-11T04:33:25.563Z,25.03
2018-06-11T04:35:54.522Z,25.07
2018-06-11T04:38:23.507Z,25.93
2018-06-11T04:40:52.535Z,26.63
2018-06-11T04:43:21.700Z,26.70
2018-06-11T04:45:51.020Z,26.17
2018-06-11T04:48:20.273Z,25.13
2018-06-11T04:50:49.488Z,24.37
2018-06-11T04:59:24.346Z,26.20
2018-06-11T05:01:53.649Z,25.30
2018-06-11T05:04:23.016Z,25.40
2018-06-11T05:06:52.042Z,25.37
2018-06-11T05:09:21.175Z,26.53
2018-06-11T05:11:50.167Z,24.80
2018-06-11T05:14:19.150Z,26.27
2018-06-11T05:16:48.123Z,25.67
2018-06-11T05:19:17.483Z,26.53
2018-06-11T05:21:46.486Z,25.90
2018-06-11T05:24:15.469Z,25.20
2018-06-11T05:26:44.483Z,23.43
2018-06-11T05:29:13.474Z,24.97
2018-06-11T05:31:42.426Z,23.97
2018-06-11T05:34:27.026Z,23.23
2018-06-11T05:36:56.092Z,23.63
2018-06-11T05:39:26.370Z,23.13
2018-06-11T05:44:53.266Z,23.07
2018-06-11T05:47:24.302Z,24.90
2018-06-11T05:49:53.290Z,24.57
2018-06-11T05:52:22.351Z,23.73
2018-06-11T05:54:51.346Z,22.23
2018-06-11T05:57:20.339Z,22.67
2018-06-11T05:59:49.383Z,24.47
2018-06-11T06:02:18.346Z,22.83
2018-06-11T06:04:47.350Z,20.70
2018-06-11T06:07:16.404Z,22.10
2018-06-11T06:09:45.868Z,21.53
2018-06-11T06:12:14.875Z,21.37
2018-06-11T06:14:43.874Z,21.93
2018-06-11T06:17:12.875Z,22.63
2018-06-11T06:19:41.890Z,21.53
2018-06-11T06:22:10.909Z,21.07
2018-06-11T06:24:39.916Z,20.10
2018-06-11T06:27:09.217Z,20.60
2018-06-11T06:29:38.515Z,19.07
2018-06-11T06:32:07.750Z,20.00
2018-06-11T06:34:37.527Z,19.20
2018-06-11T06:37:06.835Z,20.80
2018-06-11T06:39:37.081Z,20.57
2018-06-11T06:42:06.303Z,20.13
2018-06-11T06:44:36.386Z,20.70
2018-06-11T06:47:07.192Z,18.47
2018-06-11T06:49:36.257Z,19.50
2018-06-11T06:52:06.122Z,21.13
2018-06-11T06:54:35.509Z,19.47
2018-06-11T06:57:04.823Z,18.77
2018-06-11T06:59:33.915Z,19.03
2018-06-11T07:02:03.337Z,19.07
2018-06-11T07:04:33.732Z,18.50
2018-06-11T07:07:03.650Z,17.53
2018-06-11T07:09:33.113Z,19.33
2018-06-11T07:12:02.217Z,20.53
2018-06-11T07:14:31.907Z,19.47
2018-06-11T07:17:00.954Z,19.10
2018-06-11T07:19:29.941Z,18.37
2018-06-11T07:22:00.870Z,21.07
2018-06-11T07:24:31.937Z,20.07
2018-06-11T07:27:02.396Z,22.53
2018-06-11T07:29:45.431Z,19.67
2018-06-11T07:32:16.906Z,18.17
2018-06-11T07:34:48.575Z,17.83
2018-06-11T07:37:18.283Z,18.70
2018-06-11T07:39:48.529Z,18.40
2018-06-11T07:42:33.235Z,16.13
2018-06-11T07:45:03.593Z,16.60
2018-06-11T07:47:34.112Z,15.53
2018-06-11T07:50:03.485Z,14.57
2018-06-11T07:52:33.777Z,16.60
2018-06-11T07:55:04.382Z,15.20
2018-06-11T07:57:34.747Z,14.83
2018-06-11T08:00:04.964Z,14.10
2018-06-11T08:02:34.646Z,14.73
2018-06-11T08:05:04.465Z,15.57
2018-06-11T08:07:34.297Z,15.17
2018-06-11T08:10:04.047Z,14.23
2018-06-11T08:12:33.712Z,12.20
2018-06-11T08:15:03.803Z,13.03
2018-06-11T08:17:32.755Z,12.23
2018-06-11T08:20:02.053Z,13.10
2018-06-11T08:22:31.022Z,13.30
2018-06-11T08:25:00.216Z,14.10
2018-06-11T08:27:29.207Z,14.00
2018-06-11T08:29:59.559Z,12.10
2018-06-11T08:32:28.567Z,12.83
2018-06-11T08:34:57.595Z,11.90
2018-06-11T08:37:26.589Z,11.60
2018-06-11T08:39:56.706Z,11.57
2018-06-11T08:42:26.459Z,10.87
2018-06-11T08:44:57.395Z,10.90
2018-06-11T08:47:28.031Z,10.97
2018-06-11T08:58:41.758Z,11.37
2018-06-11T09:01:11.042Z,10.67
2018-06-11T09:03:40.297Z,10.37
2018-06-11T09:06:09.356Z,9.60
2018-06-11T09:08:38.363Z,9.50
2018-06-11T09:11:07.364Z,10.53
2018-06-11T09:13:36.684Z,10.30
2018-06-11T09:16:05.862Z,8.93
2018-06-11T09:18:34.913Z,9.57
2018-06-11T09:21:03.920Z,10.13
2018-06-11T09:23:32.895Z,9.77
2018-06-11T09:26:02.290Z,10.20
2018-06-11T09:28:31.258Z,9.33
2018-06-11T09:31:00.338Z,9.27
2018-06-11T09:33:29.303Z,9.53
2018-06-11T09:35:58.534Z,9.37
2018-06-11T09:38:27.494Z,9.00
2018-06-11T09:40:57.135Z,8.70
2018-06-11T09:43:26.179Z,8.37
2018-06-11T09:45:55.188Z,8.00
2018-06-11T09:48:24.157Z,8.40
2018-06-11T09:50:53.163Z,7.80
2018-06-11T09:53:39.786Z,7.20
2018-06-11T09:56:08.778Z,8.43
2018-06-11T09:58:37.774Z,7.20
2018-06-11T10:01:06.795Z,7.50
2018-06-11T10:03:35.802Z,7.70
2018-06-11T10:06:05.851Z,8.27
2018-06-11T10:08:34.868Z,7.90
2018-06-11T10:11:03.906Z,8.00
2018-06-11T10:13:33.181Z,7.47
2018-06-11T10:16:02.198Z,7.47
2018-06-11T10:18:31.174Z,7.40
2018-06-11T10:21:00.206Z,7.70
2018-06-11T10:23:29.233Z,7.40
2018-06-11T10:26:00.927Z,7.70
2018-06-11T10:28:30.228Z,7.90
2018-06-11T10:30:59.575Z,6.70
2018-06-11T10:33:28.826Z,7.50
2018-06-11T10:35:58.101Z,7.30
2018-06-11T10:38:27.525Z,7.63
2018-06-11T10:40:56.770Z,7.75
2018-06-11T10:43:26.110Z,7.27
2018-06-11T10:45:55.158Z,7.50
2018-06-11T10:48:24.129Z,7.50
2018-06-11T10:51:05.812Z,7.33
2018-06-11T10:53:34.753Z,7.37
2018-06-11T10:56:03.777Z,8.10
2018-06-11T10:58:32.804Z,7.33
2018-06-11T11:01:01.847Z,6.60
2018-06-11T11:03:30.811Z,5.40
2018-06-11T11:05:59.869Z,5.07
2018-06-11T11:08:28.874Z,4.87
2018-06-11T11:10:57.930Z,5.10
2018-06-11T11:13:26.922Z,4.57
2018-06-11T11:15:55.917Z,4.73
2018-06-11T11:18:25.007Z,4.87
2018-06-11T11:21:00.444Z,5.07
2018-06-11T11:23:29.650Z,4.30
2018-06-11T11:25:58.651Z,3.63
2018-06-11T11:28:27.671Z,3.73
2018-06-11T11:30:56.664Z,3.50
2018-06-11T11:33:25.682Z,3.27
2018-06-11T11:35:54.622Z,3.70
2018-06-11T11:38:23.658Z,3.77
2018-06-11T11:40:52.622Z,3.83
2018-06-11T11:43:22.252Z,3.67
2018-06-11T11:49:01.531Z,4.00
2018-06-11T11:51:31.895Z,4.80
2018-06-11T11:54:01.076Z,4.13
2018-06-11T11:56:30.044Z,4.70
2018-06-11T11:58:59.035Z,4.77
2018-06-11T12:01:27.996Z,5.73
2018-06-11T12:03:56.995Z,5.60
2018-06-11T12:06:25.944Z,5.97
2018-06-11T12:08:56.258Z,5.93
2018-06-11T12:11:25.258Z,6.60
2018-06-11T12:13:54.311Z,6.63
2018-06-11T12:16:24.338Z,6.23
2018-06-11T12:18:53.350Z,6.33
2018-06-11T12:21:22.338Z,6.43
2018-06-11T12:23:51.370Z,6.50
2018-06-11T12:26:20.354Z,6.80
2018-06-11T12:28:50.782Z,6.50
2018-06-11T12:31:21.859Z,6.80
2018-06-11T12:33:53.103Z,6.80
2018-06-11T12:36:22.112Z,6.37
2018-06-11T12:38:51.354Z,6.67
2018-06-11T12:41:22.072Z,7.10
2018-06-11T12:43:51.351Z,6.30
2018-06-11T12:46:21.232Z,6.03
2018-06-11T12:48:50.514Z,5.97
2018-06-11T12:51:19.833Z,6.37
2018-06-11T12:53:49.096Z,6.20
2018-06-11T12:56:18.427Z,6.70
2018-06-11T12:58:47.423Z,6.30
2018-06-11T13:01:24.090Z,5.80
2018-06-11T13:03:54.166Z,6.27
2018-06-11T13:06:23.118Z,5.30
2018-06-11T13:08:52.118Z,5.43
2018-06-11T13:11:21.067Z,4.77
2018-06-11T13:13:50.069Z,5.00
2018-06-11T13:16:19.205Z,4.50
2018-06-11T13:18:48.810Z,4.87
2018-06-11T13:30:12.886Z,4.50
2018-06-11T13:32:42.767Z,4.07
2018-06-11T13:35:11.731Z,4.57
2018-06-11T13:37:40.834Z,4.23
2018-06-11T13:40:10.247Z,4.70
2018-06-11T13:42:39.430Z,4.40
2018-06-11T13:45:08.923Z,4.30
2018-06-11T13:47:38.942Z,4.30
2018-06-11T13:50:08.058Z,4.07
2018-06-11T13:52:37.051Z,4.30
2018-06-11T13:55:06.059Z,4.70
2018-06-11T13:57:52.702Z,4.27
2018-06-11T14:00:21.811Z,4.53
2018-06-11T14:02:51.152Z,4.97
2018-06-11T14:05:20.119Z,4.50
2018-06-11T14:07:48.658Z,5.17
2018-06-11T14:10:17.614Z,4.50
2018-06-11T14:12:47.078Z,5.10
2018-06-11T14:15:16.119Z,4.07
2018-06-11T14:17:45.420Z,4.70
2018-06-11T14:20:14.382Z,4.10
2018-06-11T14:22:43.358Z,5.30
2018-06-11T14:25:12.323Z,4.53
2018-06-11T14:27:42.196Z,4.80
2018-06-11T14:30:11.591Z,5.60
2018-06-11T14:32:40.586Z,5.47
2018-06-11T14:35:09.542Z,5.27
2018-06-11T14:37:38.523Z,5.23
2018-06-11T14:40:07.506Z,5.60
2018-06-11T14:42:36.531Z,5.80
2018-06-11T14:45:05.674Z,5.70
2018-06-11T14:47:34.679Z,5.90
2018-06-11T14:50:03.647Z,6.43
2018-06-11T14:52:32.674Z,5.57
2018-06-11T14:55:01.624Z,6.80
2018-06-11T14:57:30.655Z,6.00
2018-06-11T14:59:59.629Z,6.60
2018-06-11T15:02:28.619Z,6.53
2018-06-11T15:04:57.617Z,6.77
2018-06-11T15:07:26.615Z,6.83
2018-06-11T15:09:56.007Z,6.87
2018-06-11T15:12:25.078Z,7.10
2018-06-11T15:14:54.114Z,7.00
2018-06-11T15:17:23.207Z,6.90
2018-06-11T15:19:52.349Z,6.83
2018-06-11T15:22:21.430Z,7.07
2018-06-11T15:24:50.647Z,6.90
2018-06-11T15:27:19.639Z,6.87
2018-06-11T15:29:48.592Z,7.13
2018-06-11T15:32:17.574Z,7.00
2018-06-11T15:37:34.200Z,6.30
2018-06-11T15:40:03.170Z,6.20
2018-06-11T15:42:32.439Z,5.40
2018-06-11T15:45:01.707Z,6.30
2018-06-11T15:47:30.831Z,6.90
2018-06-11T15:49:59.837Z,6.90
2018-06-11T15:52:28.815Z,6.47
2018-06-11T15:55:04.058Z,6.90
2018-06-11T15:57:33.064Z,7.17
2018-06-11T16:00:02.156Z,7.53
2018-06-11T16:02:31.197Z,7.80
2018-06-11T16:05:00.454Z,8.10
2018-06-11T16:07:29.611Z,8.40
2018-06-11T16:09:58.566Z,9.13
2018-06-11T16:44:06.813Z,10.27
2018-06-11T16:46:35.859Z,11.00
2018-06-11T16:49:04.946Z,11.00
2018-06-11T16:51:34.182Z,11.37
2018-06-11T16:54:03.383Z,11.03
2018-06-11T16:56:32.378Z,11.10
2018-06-11T16:59:01.391Z,11.60
2018-06-11T17:01:30.379Z,11.43
2018-06-11T17:03:59.598Z,11.77
2018-06-11T17:06:28.879Z,11.23
2018-06-11T17:08:58.116Z,11.73
2018-06-11T17:11:33.235Z,13.03
2018-06-11T17:14:02.484Z,12.80
2018-06-11T17:16:31.947Z,12.93
2018-06-11T17:19:12.650Z,13.77
2018-06-11T17:21:41.671Z,14.73
2018-06-11T17:24:11.507Z,14.13
2018-06-11T17:26:40.687Z,14.07
2018-06-11T17:29:09.743Z,14.80
2018-06-11T17:31:38.965Z,14.70
2018-06-11T17:34:09.572Z,14.67
2018-06-11T17:36:38.916Z,15.43
2018-06-11T17:39:08.773Z,15.70
2018-06-11T17:41:38.452Z,15.90
2018-06-11T17:44:07.780Z,16.63
2018-06-11T17:46:38.693Z,16.90
2018-06-11T17:49:07.884Z,17.70
2018-06-11T17:51:36.850Z,22.80
2018-06-11T17:54:06.510Z,23.50
2018-06-11T17:56:35.501Z,24.57
2018-06-11T17:59:21.886Z,19.67
2018-06-11T18:01:50.862Z,29.40
2018-06-11T18:04:19.925Z,25.17
2018-06-11T18:06:48.907Z,20.30
2018-06-11T18:09:17.893Z,18.53
2018-06-11T18:11:46.855Z,18.80
2018-06-11T18:14:15.869Z,19.53
2018-06-11T18:16:44.839Z,21.17
2018-06-11T18:19:13.839Z,19.97
2018-06-11T18:24:36.063Z,20.17
2018-06-11T18:27:05.476Z,20.53
2018-06-11T18:29:34.954Z,20.93
2018-06-11T18:32:07.971Z,20.37
2018-06-11T18:34:36.957Z,19.90
2018-06-11T18:37:06.604Z,19.07
2018-06-11T18:39:35.705Z,17.30
2018-06-11T18:42:24.211Z,17.03
2018-06-11T18:44:53.599Z,15.50
2018-06-11T18:47:22.811Z,14.80
2018-06-11T18:49:52.167Z,14.50
2018-06-11T18:52:21.379Z,13.40
2018-06-11T18:54:50.389Z,12.73
2018-06-11T18:57:19.542Z,12.80
2018-06-11T18:59:50.986Z,11.80
2018-06-11T19:02:20.015Z,12.20
2018-06-11T19:04:49.601Z,11.40
2018-06-11T19:07:18.790Z,12.43
2018-06-11T19:09:47.929Z,11.83
2018-06-11T19:12:17.462Z,11.27
2018-06-11T19:14:46.748Z,11.90
2018-06-11T19:17:15.875Z,11.77
2018-06-11T19:19:44.997Z,12.70
2018-06-11T19:22:14.192Z,12.37
2018-06-11T19:24:43.477Z,12.83
2018-06-11T19:27:12.636Z,13.33
2018-06-11T19:29:41.831Z,12.70
2018-06-11T19:32:10.936Z,11.90
2018-06-11T19:34:40.549Z,12.57
2018-06-11T19:37:10.059Z,11.90
2018-06-11T19:39:39.507Z,13.33
2018-06-11T19:42:09.017Z,12.60
2018-06-11T19:44:38.676Z,12.23
2018-06-11T19:47:08.461Z,11.90
2018-06-11T19:49:38.206Z,11.83
2018-06-11T19:52:08.145Z,12.53
2018-06-11T19:54:37.179Z,11.40
2018-06-11T19:57:06.194Z,12.47
2018-06-11T19:59:35.214Z,11.63
2018-06-11T20:02:04.235Z,11.23
2018-06-11T20:04:34.774Z,10.70
2018-06-11T20:07:03.790Z,10.13
2018-06-11T20:09:32.795Z,10.97
2018-06-11T20:12:01.807Z,10.90
2018-06-11T20:14:31.949Z,11.57
2018-06-11T20:17:01.033Z,11.53
2018-06-11T20:19:30.019Z,11.53
2018-06-11T20:22:00.184Z,11.93
2018-06-11T20:24:29.151Z,12.30
2018-06-11T20:26:58.424Z,11.90
2018-06-11T20:29:28.198Z,13.20
2018-06-11T20:31:57.570Z,12.70
2018-06-11T20:34:26.607Z,12.77
2018-06-11T20:36:55.934Z,12.63
2018-06-11T20:39:25.336Z,11.80
2018-06-11T20:41:54.611Z,11.07
2018-06-11T20:44:23.820Z,10.83
2018-06-11T20:46:53.395Z,9.63
2018-06-11T20:49:23.947Z,10.80
2018-06-11T20:51:52.967Z,10.03
2018-06-11T20:54:22.042Z,10.13
2018-06-11T20:56:51.307Z,10.00
2018-06-11T20:59:20.300Z,9.53
2018-06-11T21:01:49.365Z,9.80
2018-06-11T21:04:18.426Z,9.90
2018-06-11T21:06:47.432Z,9.73
2018-06-11T21:09:16.394Z,10.57
2018-06-11T21:11:45.390Z,9.33
2018-06-11T21:14:14.341Z,9.93
2018-06-11T21:16:43.334Z,9.10
2018-06-11T21:19:12.316Z,10.17
2018-06-11T21:21:41.329Z,9.87
2018-06-11T21:24:10.455Z,10.03
2018-06-11T21:26:39.470Z,9.07
2018-06-11T21:29:08.433Z,9.60
2018-06-11T21:31:37.447Z,9.80
2018-06-11T21:34:06.467Z,8.80
2018-06-11T21:36:35.494Z,8.63
2018-06-11T21:39:06.358Z,9.17
2018-06-11T21:41:35.343Z,9.47
2018-06-11T21:44:04.383Z,9.30
2018-06-11T21:46:33.851Z,8.70
2018-06-11T21:49:02.923Z,8.70
2018-06-11T21:51:32.050Z,9.27
2018-06-11T21:54:01.003Z,8.80
2018-06-11T21:56:29.991Z,8.87
2018-06-11T21:58:58.952Z,9.00
2018-06-11T22:01:27.987Z,9.73
2018-06-11T22:03:57.482Z,8.90
2018-06-11T22:06:26.466Z,8.90
2018-06-11T22:08:55.432Z,8.83
2018-06-11T22:11:24.431Z,8.17
2018-06-11T22:13:53.533Z,9.27
2018-06-11T22:16:22.562Z,9.07
2018-06-11T22:18:51.593Z,9.53
2018-06-11T22:21:20.599Z,10.27
2018-06-11T22:23:49.582Z,9.60
2018-06-11T22:26:18.572Z,9.83
2018-06-11T22:28:47.537Z,9.40
2018-06-11T22:31:16.527Z,9.60
2018-06-11T22:33:45.568Z,9.40
2018-06-11T22:36:14.648Z,9.37
2018-06-11T22:38:43.712Z,9.93
2018-06-11T22:41:12.722Z,9.17
2018-06-11T22:43:41.726Z,10.60
2018-06-11T22:46:10.718Z,9.20
2018-06-11T22:48:39.754Z,9.33
2018-06-11T22:51:08.714Z,9.43
2018-06-11T22:53:37.727Z,9.77
2018-06-11T22:56:06.667Z,9.87
2018-06-11T22:58:35.662Z,10.87
2018-06-11T23:01:04.659Z,10.77
2018-06-11T23:03:33.662Z,10.60
2018-06-11T23:06:02.189Z,11.17
2018-06-11T23:08:31.203Z,10.93
2018-06-11T23:10:59.710Z,10.67
2018-06-11T23:13:28.711Z,10.77
2018-06-11T23:15:57.674Z,10.80
2018-06-11T23:18:26.685Z,10.93
2018-06-11T23:20:55.650Z,10.67
2018-06-11T23:23:24.655Z,11.07
2018-06-11T23:25:53.620Z,11.17
2018-06-11T23:28:22.654Z,10.33
2018-06-11T23:30:51.634Z,10.47
2018-06-11T23:33:20.647Z,10.77
2018-06-11T23:35:49.619Z,11.43
2018-06-11T23:38:18.640Z,11.10
2018-06-11T23:40:47.666Z,11.03
2018-06-11T23:43:16.663Z,10.83
2018-06-11T23:45:45.626Z,11.50
2018-06-11T23:48:14.638Z,11.00
2018-06-11T23:50:43.622Z,11.13
2018-06-11T23:53:12.634Z,10.87
2018-06-11T23:55:41.620Z,10.40
2018-06-11T23:58:10.605Z,9.90
